sensor_id;sensor_type;location;lat;lon;timestamp;pressure;altitude;pressure_sealevel;temperature;humidity
42415;BME280;28058;46.344;17.786;2023-07-13T03:54:02;118336.50;;;-144.97;100.00
42415;BME280;28058;46.344;17.786;2023-07-13T03:56:30;118336.50;;;-144.97;100.00
42415;BME280;28058;46.344;17.786;2023-07-13T03:58:57;118336.50;;;-144.97;100.00
42415;BME280;28058;46.344;17.786;2023-07-13T04:01:24;118336.50;;;-144.97;100.00
42415;BME280;28058;46.344;17.786;2023-07-13T04:03:52;118336.50;;;-144.97;100.00
42415;BME280;28058;46.344;17.786;2023-07-13T04:06:25;118336.50;;;-144.97;100.00
42415;BME280;28058;46.344;17.786;2023-07-13T04:08:55;118336.50;;;-144.97;100.00
42415;BME280;28058;46.344;17.786;2023-07-13T04:11:23;118336.50;;;-144.97;100.00
42415;BME280;28058;46.344;17.786;2023-07-13T04:13:51;118336.50;;;-144.97;100.00
42415;BME280;28058;46.344;17.786;2023-07-13T04:16:18;118336.50;;;-144.97;100.00
42415;BME280;28058;46.344;17.786;2023-07-13T04:18:46;118336.50;;;-144.97;100.00
42415;BME280;28058;46.344;17.786;2023-07-13T04:21:15;118336.50;;;-144.97;100.00
42415;BME280;28058;46.344;17.786;2023-07-13T04:23:43;118336.50;;;-144.97;100.00
42415;BME280;28058;46.344;17.786;2023-07-13T04:26:10;118336.50;;;-144.97;100.00
42415;BME280;28058;46.344;17.786;2023-07-13T04:28:37;118336.50;;;-144.97;100.00
42415;BME280;28058;46.344;17.786;2023-07-13T04:31:04;118336.50;;;-144.97;100.00
42415;BME280;28058;46.344;17.786;2023-07-13T04:33:31;118336.50;;;-144.97;100.00
42415;BME280;28058;46.344;17.786;2023-07-13T04:35:58;118336.50;;;-144.97;100.00
42415;BME280;28058;46.344;17.786;2023-07-13T04:38:28;118336.50;;;-144.97;100.00
42415;BME280;28058;46.344;17.786;2023-07-13T04:40:57;118336.50;;;-144.97;100.00
42415;BME280;28058;46.344;17.786;2023-07-13T04:43:25;118336.50;;;-144.97;100.00
42415;BME280;28058;46.344;17.786;2023-07-13T04:49:09;118336.50;;;-144.97;100.00
42415;BME280;28058;46.344;17.786;2023-07-13T04:51:36;118336.50;;;-144.97;100.00
42415;BME280;28058;46.344;17.786;2023-07-13T04:54:03;118336.50;;;-144.97;100.00
42415;BME280;28058;46.344;17.786;2023-07-13T04:56:31;118336.50;;;-144.97;100.00
42415;BME280;28058;46.344;17.786;2023-07-13T04:58:58;118336.50;;;-144.97;100.00
42415;BME280;28058;46.344;17.786;2023-07-13T05:01:25;118336.50;;;-144.97;100.00
42415;BME280;28058;46.344;17.786;2023-07-13T05:03:52;118336.50;;;-144.97;100.00
42415;BME280;28058;46.344;17.786;2023-07-13T05:06:19;118336.50;;;-144.97;100.00
42415;BME280;28058;46.344;17.786;2023-07-13T05:08:46;118336.50;;;-144.97;100.00
42415;BME280;28058;46.344;17.786;2023-07-13T05:11:13;118336.50;;;-144.97;100.00
42415;BME280;28058;46.344;17.786;2023-07-13T05:13:40;118336.50;;;-144.97;100.00
42415;BME280;28058;46.344;17.786;2023-07-13T05:16:08;118336.50;;;-144.97;100.00
42415;BME280;28058;46.344;17.786;2023-07-13T05:18:35;118336.50;;;-144.97;100.00
42415;BME280;28058;46.344;17.786;2023-07-13T05:21:09;118336.50;;;-144.97;100.00
42415;BME280;28058;46.344;17.786;2023-07-13T05:23:37;118336.50;;;-144.97;100.00
42415;BME280;28058;46.344;17.786;2023-07-13T05:26:04;118336.50;;;-144.97;100.00
42415;BME280;28058;46.344;17.786;2023-07-13T05:28:35;118336.50;;;-144.97;100.00
42415;BME280;28058;46.344;17.786;2023-07-13T05:31:02;118336.50;;;-144.97;100.00
42415;BME280;28058;46.344;17.786;2023-07-13T05:33:29;118336.50;;;-144.97;100.00
42415;BME280;28058;46.344;17.786;2023-07-13T05:35:56;118336.50;;;-144.97;100.00
42415;BME280;28058;46.344;17.786;2023-07-13T05:38:23;118336.50;;;-144.97;100.00
42415;BME280;28058;46.344;17.786;2023-07-13T05:40:51;118336.50;;;-144.97;100.00
42415;BME280;28058;46.344;17.786;2023-07-13T05:43:18;118336.50;;;-144.97;100.00
42415;BME280;28058;46.344;17.786;2023-07-13T05:45:45;118336.50;;;-144.97;100.00
42415;BME280;28058;46.344;17.786;2023-07-13T05:48:12;118336.50;;;-144.97;100.00
42415;BME280;28058;46.344;17.786;2023-07-13T05:50:38;118336.50;;;-144.97;100.00
42415;BME280;28058;46.344;17.786;2023-07-13T05:53:05;118336.50;;;-144.97;100.00
42415;BME280;28058;46.344;17.786;2023-07-13T05:55:33;118336.50;;;-144.97;100.00
42415;BME280;28058;46.344;17.786;2023-07-13T05:58:00;118336.50;;;-144.97;100.00
42415;BME280;28058;46.344;17.786;2023-07-13T06:00:27;118336.50;;;-144.97;100.00
42415;BME280;28058;46.344;17.786;2023-07-13T06:02:55;118336.50;;;-144.97;100.00
42415;BME280;28058;46.344;17.786;2023-07-13T06:05:22;118336.50;;;-144.97;100.00
42415;BME280;28058;46.344;17.786;2023-07-13T06:07:49;118336.50;;;-144.97;100.00
42415;BME280;28058;46.344;17.786;2023-07-13T06:10:16;118336.50;;;-144.97;100.00
42415;BME280;28058;46.344;17.786;2023-07-13T06:12:43;118336.50;;;-144.97;100.00
42415;BME280;28058;46.344;17.786;2023-07-13T06:15:11;118336.50;;;-144.97;100.00
42415;BME280;28058;46.344;17.786;2023-07-13T06:17:37;118336.50;;;-144.97;100.00
42415;BME280;28058;46.344;17.786;2023-07-13T06:20:05;118336.50;;;-144.97;100.00
42415;BME280;28058;46.344;17.786;2023-07-13T06:22:32;118336.50;;;-144.97;100.00
42415;BME280;28058;46.344;17.786;2023-07-13T06:24:59;118336.50;;;-144.97;100.00
42415;BME280;28058;46.344;17.786;2023-07-13T06:27:26;118336.50;;;-144.97;100.00
42415;BME280;28058;46.344;17.786;2023-07-13T06:29:56;118336.50;;;-144.97;100.00
42415;BME280;28058;46.344;17.786;2023-07-13T06:32:23;118336.50;;;-144.97;100.00
42415;BME280;28058;46.344;17.786;2023-07-13T06:34:50;118336.50;;;-144.97;95.49
42415;BME280;28058;46.344;17.786;2023-07-13T06:37:18;118336.50;;;-144.97;96.02
42415;BME280;28058;46.344;17.786;2023-07-13T06:39:45;118336.50;;;-144.97;94.36
42415;BME280;28058;46.344;17.786;2023-07-13T06:42:12;118336.50;;;-144.97;93.98
42415;BME280;28058;46.344;17.786;2023-07-13T06:44:40;118336.50;;;-144.97;90.10
42415;BME280;28058;46.344;17.786;2023-07-13T06:47:07;118336.50;;;-144.97;89.21
42415;BME280;28058;46.344;17.786;2023-07-13T06:49:34;118336.50;;;-144.97;85.15
42415;BME280;28058;46.344;17.786;2023-07-13T06:52:01;118336.50;;;-144.97;83.97
42415;BME280;28058;46.344;17.786;2023-07-13T06:54:28;118336.50;;;-144.97;83.87
42415;BME280;28058;46.344;17.786;2023-07-13T06:56:55;118336.50;;;-144.97;82.22
42415;BME280;28058;46.344;17.786;2023-07-13T06:59:22;118336.50;;;-144.97;84.40
42415;BME280;28058;46.344;17.786;2023-07-13T07:01:49;118336.50;;;-144.97;78.80
42415;BME280;28058;46.344;17.786;2023-07-13T07:04:16;118336.50;;;-144.97;72.81
42415;BME280;28058;46.344;17.786;2023-07-13T07:06:43;118336.50;;;-144.97;74.42
42415;BME280;28058;46.344;17.786;2023-07-13T07:09:10;118336.50;;;-144.97;72.45
42415;BME280;28058;46.344;17.786;2023-07-13T07:11:37;118336.50;;;-144.97;70.26
42415;BME280;28058;46.344;17.786;2023-07-13T07:14:15;118336.50;;;-144.97;64.82
42415;BME280;28058;46.344;17.786;2023-07-13T07:16:42;118336.50;;;-144.97;71.94
42415;BME280;28058;46.344;17.786;2023-07-13T07:19:09;118336.50;;;-144.97;70.57
42415;BME280;28058;46.344;17.786;2023-07-13T07:21:36;118336.50;;;-144.97;70.80
42415;BME280;28058;46.344;17.786;2023-07-13T07:24:04;118336.50;;;-144.97;71.68
42415;BME280;28058;46.344;17.786;2023-07-13T07:26:31;118336.50;;;-144.97;70.99
42415;BME280;28058;46.344;17.786;2023-07-13T07:29:10;118336.50;;;-144.97;65.34
42415;BME280;28058;46.344;17.786;2023-07-13T07:31:39;118336.50;;;-144.97;61.32
42415;BME280;28058;46.344;17.786;2023-07-13T07:34:09;118336.50;;;-144.97;63.84
42415;BME280;28058;46.344;17.786;2023-07-13T07:36:36;118336.50;;;-144.97;58.77
42415;BME280;28058;46.344;17.786;2023-07-13T07:39:06;118336.50;;;-144.97;61.40
42415;BME280;28058;46.344;17.786;2023-07-13T07:41:33;118336.50;;;-144.97;64.26
42415;BME280;28058;46.344;17.786;2023-07-13T07:44:03;118336.50;;;-144.97;59.70
42415;BME280;28058;46.344;17.786;2023-07-13T07:46:30;118336.50;;;-144.97;51.24
42415;BME280;28058;46.344;17.786;2023-07-13T07:48:58;118336.50;;;-144.97;54.14
42415;BME280;28058;46.344;17.786;2023-07-13T07:51:24;118336.50;;;-144.97;49.17
42415;BME280;28058;46.344;17.786;2023-07-13T07:53:51;118336.50;;;-144.97;49.26
42415;BME280;28058;46.344;17.786;2023-07-13T07:56:18;118336.50;;;-144.97;49.79
42415;BME280;28058;46.344;17.786;2023-07-13T07:58:48;118336.50;;;-144.97;47.73
42415;BME280;28058;46.344;17.786;2023-07-13T08:01:18;118336.50;;;-144.97;52.86
42415;BME280;28058;46.344;17.786;2023-07-13T08:03:47;118336.50;;;-144.97;67.47
42415;BME280;28058;46.344;17.786;2023-07-13T08:06:17;118336.50;;;-144.97;67.52
42415;BME280;28058;46.344;17.786;2023-07-13T08:08:49;118336.50;;;-144.97;69.74
42415;BME280;28058;46.344;17.786;2023-07-13T08:11:17;118336.50;;;-144.97;69.51
42415;BME280;28058;46.344;17.786;2023-07-13T08:13:46;118336.50;;;-144.97;70.77
42415;BME280;28058;46.344;17.786;2023-07-13T08:16:13;118336.50;;;-144.97;69.92
42415;BME280;28058;46.344;17.786;2023-07-13T08:18:40;118336.50;;;-144.97;62.61
42415;BME280;28058;46.344;17.786;2023-07-13T08:21:08;118336.50;;;-144.97;58.62
42415;BME280;28058;46.344;17.786;2023-07-13T08:23:36;118336.50;;;-144.97;56.71
42415;BME280;28058;46.344;17.786;2023-07-13T08:26:03;118336.50;;;-144.97;58.69
42415;BME280;28058;46.344;17.786;2023-07-13T08:28:31;118336.50;;;-144.97;57.87
42415;BME280;28058;46.344;17.786;2023-07-13T08:31:06;118336.50;;;-144.97;64.26
42415;BME280;28058;46.344;17.786;2023-07-13T08:33:37;118336.50;;;-144.97;57.81
42415;BME280;28058;46.344;17.786;2023-07-13T08:36:05;118336.50;;;-144.97;53.85
42415;BME280;28058;46.344;17.786;2023-07-13T08:38:32;118336.50;;;-144.97;55.58
42415;BME280;28058;46.344;17.786;2023-07-13T08:40:59;118336.50;;;-144.97;56.47
42415;BME280;28058;46.344;17.786;2023-07-13T08:43:29;118336.50;;;-144.97;55.47
42415;BME280;28058;46.344;17.786;2023-07-13T08:46:20;118336.50;;;-144.97;67.02
42415;BME280;28058;46.344;17.786;2023-07-13T08:48:56;118336.50;;;-144.97;69.70
42415;BME280;28058;46.344;17.786;2023-07-13T08:51:30;118336.50;;;-144.97;68.07
42415;BME280;28058;46.344;17.786;2023-07-13T08:54:03;118336.50;;;-144.97;68.15
42415;BME280;28058;46.344;17.786;2023-07-13T08:56:32;118336.50;;;-144.97;72.35
42415;BME280;28058;46.344;17.786;2023-07-13T08:59:14;118336.50;;;-144.97;69.15
42415;BME280;28058;46.344;17.786;2023-07-13T09:02:06;118336.50;;;-144.97;70.43
42415;BME280;28058;46.344;17.786;2023-07-13T09:04:42;118336.50;;;-144.97;66.65
42415;BME280;28058;46.344;17.786;2023-07-13T09:07:41;118336.50;;;-144.97;68.09
42415;BME280;28058;46.344;17.786;2023-07-13T09:10:23;118336.50;;;-144.97;72.27
42415;BME280;28058;46.344;17.786;2023-07-13T09:13:19;118336.50;;;-144.97;69.05
42415;BME280;28058;46.344;17.786;2023-07-13T09:15:50;118336.50;;;-144.97;66.16
42415;BME280;28058;46.344;17.786;2023-07-13T09:18:32;118336.50;;;-144.97;68.14
42415;BME280;28058;46.344;17.786;2023-07-13T09:21:10;118336.50;;;-144.97;68.87
42415;BME280;28058;46.344;17.786;2023-07-13T09:23:39;118336.50;;;-144.97;67.48
42415;BME280;28058;46.344;17.786;2023-07-13T09:26:14;118336.50;;;-144.97;62.45
42415;BME280;28058;46.344;17.786;2023-07-13T09:28:45;118336.50;;;-144.97;69.21
42415;BME280;28058;46.344;17.786;2023-07-13T09:31:36;118336.50;;;-144.97;67.74
42415;BME280;28058;46.344;17.786;2023-07-13T09:34:10;118336.50;;;-144.97;70.34
42415;BME280;28058;46.344;17.786;2023-07-13T09:36:37;118336.50;;;-144.97;67.23
42415;BME280;28058;46.344;17.786;2023-07-13T09:42:33;118336.50;;;-144.97;63.82
42415;BME280;28058;46.344;17.786;2023-07-13T09:44:37;118336.50;;;-144.97;69.46
42415;BME280;28058;46.344;17.786;2023-07-13T09:47:16;118336.50;;;-144.97;66.67
42415;BME280;28058;46.344;17.786;2023-07-13T09:49:43;118336.50;;;-144.97;66.35
42415;BME280;28058;46.344;17.786;2023-07-13T09:52:15;118336.50;;;-144.97;71.70
42415;BME280;28058;46.344;17.786;2023-07-13T09:54:50;118336.50;;;-144.97;75.11
42415;BME280;28058;46.344;17.786;2023-07-13T09:57:22;118336.50;;;-144.97;73.86
42415;BME280;28058;46.344;17.786;2023-07-13T10:00:00;118336.50;;;-144.97;74.83
42415;BME280;28058;46.344;17.786;2023-07-13T10:02:33;118336.50;;;-144.97;71.33
42415;BME280;28058;46.344;17.786;2023-07-13T10:07:28;118336.50;;;-144.97;70.21
42415;BME280;28058;46.344;17.786;2023-07-13T10:09:58;118336.50;;;-144.97;70.75
42415;BME280;28058;46.344;17.786;2023-07-13T10:12:29;118336.50;;;-144.97;68.85
42415;BME280;28058;46.344;17.786;2023-07-13T10:14:59;118336.50;;;-144.97;68.15
42415;BME280;28058;46.344;17.786;2023-07-13T10:17:48;118336.50;;;-144.97;65.88
42415;BME280;28058;46.344;17.786;2023-07-13T10:20:16;118336.50;;;-144.97;62.74
42415;BME280;28058;46.344;17.786;2023-07-13T10:22:50;118336.50;;;-144.97;65.12
42415;BME280;28058;46.344;17.786;2023-07-13T10:25:24;118336.50;;;-144.97;63.01
42415;BME280;28058;46.344;17.786;2023-07-13T10:28:52;118336.50;;;-144.97;67.58
42415;BME280;28058;46.344;17.786;2023-07-13T10:31:14;118336.50;;;-144.97;69.41
42415;BME280;28058;46.344;17.786;2023-07-13T10:33:43;118336.50;;;-144.97;65.89
42415;BME280;28058;46.344;17.786;2023-07-13T10:36:31;118336.50;;;-144.97;66.96
42415;BME280;28058;46.344;17.786;2023-07-13T10:39:03;118336.50;;;-144.97;63.43
42415;BME280;28058;46.344;17.786;2023-07-13T10:41:35;118336.50;;;-144.97;63.55
42415;BME280;28058;46.344;17.786;2023-07-13T10:44:04;118336.50;;;-144.97;67.95
42415;BME280;28058;46.344;17.786;2023-07-13T10:46:36;118336.50;;;-144.97;64.76
42415;BME280;28058;46.344;17.786;2023-07-13T10:49:05;118336.50;;;-144.97;62.83
42415;BME280;28058;46.344;17.786;2023-07-13T10:51:34;118336.50;;;-144.97;64.57
42415;BME280;28058;46.344;17.786;2023-07-13T10:54:39;118336.50;;;-144.97;64.67
42415;BME280;28058;46.344;17.786;2023-07-13T10:57:41;118336.50;;;-144.97;67.31
42415;BME280;28058;46.344;17.786;2023-07-13T11:00:15;118336.50;;;-144.97;62.50
42415;BME280;28058;46.344;17.786;2023-07-13T11:02:43;118336.50;;;-144.97;65.64
42415;BME280;28058;46.344;17.786;2023-07-13T11:05:29;118336.50;;;-144.97;62.28
42415;BME280;28058;46.344;17.786;2023-07-13T11:08:23;118336.50;;;-144.97;59.98
42415;BME280;28058;46.344;17.786;2023-07-13T11:10:59;118336.50;;;-144.97;63.39
42415;BME280;28058;46.344;17.786;2023-07-13T11:16:21;118336.50;;;-144.97;61.04
42415;BME280;28058;46.344;17.786;2023-07-13T11:21:29;118336.50;;;-144.97;60.94
42415;BME280;28058;46.344;17.786;2023-07-13T11:31:42;118336.50;;;-144.97;65.25
42415;BME280;28058;46.344;17.786;2023-07-13T11:34:15;118336.50;;;-144.97;64.79
42415;BME280;28058;46.344;17.786;2023-07-13T11:36:45;118336.50;;;-144.97;63.99
42415;BME280;28058;46.344;17.786;2023-07-13T11:39:48;118336.50;;;-144.97;65.59
42415;BME280;28058;46.344;17.786;2023-07-13T11:42:16;118336.50;;;-144.97;62.33
42415;BME280;28058;46.344;17.786;2023-07-13T11:44:49;118336.50;;;-144.97;66.10
42415;BME280;28058;46.344;17.786;2023-07-13T11:47:39;118336.50;;;-144.97;64.40
42415;BME280;28058;46.344;17.786;2023-07-13T11:50:18;118336.50;;;-144.97;64.01
42415;BME280;28058;46.344;17.786;2023-07-13T11:52:46;118336.50;;;-144.97;66.03
42415;BME280;28058;46.344;17.786;2023-07-13T11:55:17;118336.50;;;-144.97;66.43
42415;BME280;28058;46.344;17.786;2023-07-13T11:57:58;118336.50;;;-144.97;59.87
42415;BME280;28058;46.344;17.786;2023-07-13T12:00:29;118336.50;;;-144.97;61.60
42415;BME280;28058;46.344;17.786;2023-07-13T12:03:01;118336.50;;;-144.97;65.18
42415;BME280;28058;46.344;17.786;2023-07-13T12:05:31;118336.50;;;-144.97;63.49
42415;BME280;28058;46.344;17.786;2023-07-13T12:08:08;118336.50;;;-144.97;64.32
42415;BME280;28058;46.344;17.786;2023-07-13T12:10:56;118336.50;;;-144.97;65.67
42415;BME280;28058;46.344;17.786;2023-07-13T12:13:23;118336.50;;;-144.97;63.73
42415;BME280;28058;46.344;17.786;2023-07-13T12:15:52;118336.50;;;-144.97;61.03
42415;BME280;28058;46.344;17.786;2023-07-13T12:18:23;118336.50;;;-144.97;54.25
42415;BME280;28058;46.344;17.786;2023-07-13T12:20:57;118336.50;;;-144.97;57.01
42415;BME280;28058;46.344;17.786;2023-07-13T12:23:31;118336.50;;;-144.97;56.56
42415;BME280;28058;46.344;17.786;2023-07-13T12:26:02;118336.50;;;-144.97;61.72
42415;BME280;28058;46.344;17.786;2023-07-13T12:28:37;118336.50;;;-144.97;62.22
42415;BME280;28058;46.344;17.786;2023-07-13T12:31:07;118336.50;;;-144.97;58.24
42415;BME280;28058;46.344;17.786;2023-07-13T12:33:44;118336.50;;;-144.97;60.66
42415;BME280;28058;46.344;17.786;2023-07-13T12:36:12;118336.50;;;-144.97;58.80
42415;BME280;28058;46.344;17.786;2023-07-13T12:38:39;118336.50;;;-144.97;59.43
42415;BME280;28058;46.344;17.786;2023-07-13T12:41:08;118336.50;;;-144.97;62.11
42415;BME280;28058;46.344;17.786;2023-07-13T12:43:37;118336.50;;;-144.97;62.01
42415;BME280;28058;46.344;17.786;2023-07-13T12:46:24;118336.50;;;-144.97;61.91
42415;BME280;28058;46.344;17.786;2023-07-13T12:48:57;118336.50;;;-144.97;61.40
42415;BME280;28058;46.344;17.786;2023-07-13T12:51:43;118336.50;;;-144.97;62.98
42415;BME280;28058;46.344;17.786;2023-07-13T12:54:17;118336.50;;;-144.97;65.37
42415;BME280;28058;46.344;17.786;2023-07-13T12:56:49;118336.50;;;-144.97;65.42
42415;BME280;28058;46.344;17.786;2023-07-13T12:59:21;118336.50;;;-144.97;65.13
42415;BME280;28058;46.344;17.786;2023-07-13T13:01:49;118336.50;;;-144.97;64.61
42415;BME280;28058;46.344;17.786;2023-07-13T13:04:17;118336.50;;;-144.97;65.13
42415;BME280;28058;46.344;17.786;2023-07-13T13:06:49;118336.50;;;-144.97;60.31
42415;BME280;28058;46.344;17.786;2023-07-13T13:09:27;118336.50;;;-144.97;62.92
42415;BME280;28058;46.344;17.786;2023-07-13T13:11:54;118336.50;;;-144.97;61.73
42415;BME280;28058;46.344;17.786;2023-07-13T13:14:20;118336.50;;;-144.97;66.05
42415;BME280;28058;46.344;17.786;2023-07-13T13:16:49;118336.50;;;-144.97;62.98
42415;BME280;28058;46.344;17.786;2023-07-13T13:19:18;118336.50;;;-144.97;61.46
42415;BME280;28058;46.344;17.786;2023-07-13T13:21:47;118336.50;;;-144.97;63.16
42415;BME280;28058;46.344;17.786;2023-07-13T13:24:17;118336.50;;;-144.97;63.39
42415;BME280;28058;46.344;17.786;2023-07-13T13:26:44;118336.50;;;-144.97;61.26
42415;BME280;28058;46.344;17.786;2023-07-13T13:29:22;118336.50;;;-144.97;62.49
42415;BME280;28058;46.344;17.786;2023-07-13T13:31:53;118336.50;;;-144.97;64.34
42415;BME280;28058;46.344;17.786;2023-07-13T13:34:22;118336.50;;;-144.97;65.00
42415;BME280;28058;46.344;17.786;2023-07-13T13:36:54;118336.50;;;-144.97;64.99
42415;BME280;28058;46.344;17.786;2023-07-13T13:39:36;118336.50;;;-144.97;64.94
42415;BME280;28058;46.344;17.786;2023-07-13T13:42:04;118336.50;;;-144.97;64.66
42415;BME280;28058;46.344;17.786;2023-07-13T13:44:31;118336.50;;;-144.97;65.15
42415;BME280;28058;46.344;17.786;2023-07-13T13:46:58;118336.50;;;-144.97;65.40
42415;BME280;28058;46.344;17.786;2023-07-13T13:49:27;118336.50;;;-144.97;65.98
42415;BME280;28058;46.344;17.786;2023-07-13T13:51:55;118336.50;;;-144.97;62.03
42415;BME280;28058;46.344;17.786;2023-07-13T13:54:23;118336.50;;;-144.97;61.35
42415;BME280;28058;46.344;17.786;2023-07-13T13:56:51;118336.50;;;-144.97;62.85
42415;BME280;28058;46.344;17.786;2023-07-13T13:59:19;118336.50;;;-144.97;58.94
42415;BME280;28058;46.344;17.786;2023-07-13T14:01:48;118336.50;;;-144.97;59.88
42415;BME280;28058;46.344;17.786;2023-07-13T14:04:18;118336.50;;;-144.97;61.20
42415;BME280;28058;46.344;17.786;2023-07-13T14:06:46;118336.50;;;-144.97;60.96
42415;BME280;28058;46.344;17.786;2023-07-13T14:09:15;118336.50;;;-144.97;65.18
42415;BME280;28058;46.344;17.786;2023-07-13T14:11:42;118336.50;;;-144.97;62.17
42415;BME280;28058;46.344;17.786;2023-07-13T14:14:28;118336.50;;;-144.97;65.75
42415;BME280;28058;46.344;17.786;2023-07-13T14:16:56;118336.50;;;-144.97;64.74
42415;BME280;28058;46.344;17.786;2023-07-13T14:19:24;118336.50;;;-144.97;65.74
42415;BME280;28058;46.344;17.786;2023-07-13T14:21:51;118336.50;;;-144.97;63.63
42415;BME280;28058;46.344;17.786;2023-07-13T14:24:21;118336.50;;;-144.97;66.50
42415;BME280;28058;46.344;17.786;2023-07-13T14:26:48;118336.50;;;-144.97;66.74
42415;BME280;28058;46.344;17.786;2023-07-13T14:29:17;118336.50;;;-144.97;72.57
42415;BME280;28058;46.344;17.786;2023-07-13T14:31:49;118336.50;;;-144.97;76.24
42415;BME280;28058;46.344;17.786;2023-07-13T14:34:16;118336.50;;;-144.97;82.48
42415;BME280;28058;46.344;17.786;2023-07-13T14:36:48;118336.50;;;-144.97;84.96
42415;BME280;28058;46.344;17.786;2023-07-13T14:39:24;118336.50;;;-144.97;87.07
42415;BME280;28058;46.344;17.786;2023-07-13T14:41:53;118336.50;;;-144.97;89.66
42415;BME280;28058;46.344;17.786;2023-07-13T14:44:24;118336.50;;;-144.97;95.06
42415;BME280;28058;46.344;17.786;2023-07-13T14:46:52;118336.50;;;-144.97;97.94
42415;BME280;28058;46.344;17.786;2023-07-13T14:49:42;118336.50;;;-144.97;100.00
42415;BME280;28058;46.344;17.786;2023-07-13T14:52:16;118336.50;;;-144.97;100.00
42415;BME280;28058;46.344;17.786;2023-07-13T14:54:44;118336.50;;;-144.97;100.00
42415;BME280;28058;46.344;17.786;2023-07-13T14:57:17;118336.50;;;-144.97;100.00
42415;BME280;28058;46.344;17.786;2023-07-13T14:59:46;118336.50;;;-144.97;100.00
42415;BME280;28058;46.344;17.786;2023-07-13T15:04:43;118336.50;;;-144.97;100.00
42415;BME280;28058;46.344;17.786;2023-07-13T15:07:11;118336.50;;;-144.97;100.00
42415;BME280;28058;46.344;17.786;2023-07-13T15:09:39;118336.50;;;-144.97;100.00
42415;BME280;28058;46.344;17.786;2023-07-13T15:12:06;118336.50;;;-144.97;100.00
42415;BME280;28058;46.344;17.786;2023-07-13T15:14:33;118336.50;;;-144.97;100.00
42415;BME280;28058;46.344;17.786;2023-07-13T15:17:00;118336.50;;;-144.97;100.00
42415;BME280;28058;46.344;17.786;2023-07-13T15:19:28;118336.50;;;-144.97;100.00
42415;BME280;28058;46.344;17.786;2023-07-13T15:21:56;118336.50;;;-144.97;100.00
42415;BME280;28058;46.344;17.786;2023-07-13T15:24:24;118336.50;;;-144.97;100.00
42415;BME280;28058;46.344;17.786;2023-07-13T15:26:51;118336.50;;;-144.97;100.00
42415;BME280;28058;46.344;17.786;2023-07-13T15:29:18;118336.50;;;-144.97;100.00
42415;BME280;28058;46.344;17.786;2023-07-13T15:31:45;118336.50;;;-144.97;100.00
42415;BME280;28058;46.344;17.786;2023-07-13T15:34:24;118336.50;;;-144.97;100.00
42415;BME280;28058;46.344;17.786;2023-07-13T15:36:53;118336.50;;;-144.97;100.00
42415;BME280;28058;46.344;17.786;2023-07-13T15:39:20;118336.50;;;-144.97;100.00
42415;BME280;28058;46.344;17.786;2023-07-13T15:41:47;118336.50;;;-144.97;100.00
42415;BME280;28058;46.344;17.786;2023-07-13T15:44:27;118336.50;;;-144.97;100.00
42415;BME280;28058;46.344;17.786;2023-07-13T15:46:55;118336.50;;;-144.97;100.00
42415;BME280;28058;46.344;17.786;2023-07-13T15:49:22;118336.50;;;-144.97;100.00
42415;BME280;28058;46.344;17.786;2023-07-13T15:51:49;118336.50;;;-144.97;100.00
42415;BME280;28058;46.344;17.786;2023-07-13T15:54:18;118336.50;;;-144.97;100.00
42415;BME280;28058;46.344;17.786;2023-07-13T15:56:51;118336.50;;;-144.97;100.00
42415;BME280;28058;46.344;17.786;2023-07-13T15:59:19;118336.50;;;-144.97;100.00
42415;BME280;28058;46.344;17.786;2023-07-13T16:01:46;118336.50;;;-144.97;100.00
42415;BME280;28058;46.344;17.786;2023-07-13T16:04:16;118336.50;;;-144.97;100.00
42415;BME280;28058;46.344;17.786;2023-07-13T16:06:46;118336.50;;;-144.97;100.00
42415;BME280;28058;46.344;17.786;2023-07-13T16:09:23;118336.50;;;-144.97;100.00
42415;BME280;28058;46.344;17.786;2023-07-13T16:11:51;118336.50;;;-144.97;100.00
42415;BME280;28058;46.344;17.786;2023-07-13T16:14:19;118336.50;;;-144.97;100.00
42415;BME280;28058;46.344;17.786;2023-07-13T16:16:47;118336.50;;;-144.97;100.00
42415;BME280;28058;46.344;17.786;2023-07-13T16:19:17;118336.50;;;-144.97;100.00
42415;BME280;28058;46.344;17.786;2023-07-13T16:21:46;118336.50;;;-144.97;100.00
42415;BME280;28058;46.344;17.786;2023-07-13T16:24:20;118336.50;;;-144.97;100.00
42415;BME280;28058;46.344;17.786;2023-07-13T16:26:49;118336.50;;;-144.97;100.00
42415;BME280;28058;46.344;17.786;2023-07-13T16:29:24;118336.50;;;-144.97;100.00
42415;BME280;28058;46.344;17.786;2023-07-13T16:34:33;118336.50;;;-144.97;100.00
42415;BME280;28058;46.344;17.786;2023-07-13T16:39:47;118336.50;;;-144.97;100.00
42415;BME280;28058;46.344;17.786;2023-07-13T16:42:15;118336.50;;;-144.97;100.00
42415;BME280;28058;46.344;17.786;2023-07-13T16:44:42;118336.50;;;-144.97;100.00
42415;BME280;28058;46.344;17.786;2023-07-13T16:47:14;118336.50;;;-144.97;100.00
42415;BME280;28058;46.344;17.786;2023-07-13T16:49:42;118336.50;;;-144.97;100.00
42415;BME280;28058;46.344;17.786;2023-07-13T16:52:14;118336.50;;;-144.97;100.00
42415;BME280;28058;46.344;17.786;2023-07-13T16:54:41;118336.50;;;-144.97;100.00
42415;BME280;28058;46.344;17.786;2023-07-13T16:57:15;118336.50;;;-144.97;100.00
42415;BME280;28058;46.344;17.786;2023-07-13T16:59:42;118336.50;;;-144.97;100.00